createdAt,value
2018-12-02T00:00:20.386Z,20.20
2018-12-02T00:02:48.626Z,17.27
2018-12-02T00:05:16.864Z,18.03
2018-12-02T00:07:45.162Z,18.80
2018-12-02T00:10:14.490Z,18.43
2018-12-02T00:12:42.734Z,17.50
2018-12-02T00:15:16.912Z,19.07
2018-12-02T00:17:45.163Z,18.50
2018-12-02T00:20:14.237Z,19.87
2018-12-02T00:22:42.488Z,19.17
2018-12-02T00:25:11.829Z,20.47
2018-12-02T00:27:40.294Z,21.07
2018-12-02T00:30:14.704Z,20.83
2018-12-02T00:32:43.071Z,19.97
2018-12-02T00:35:12.214Z,20.73
2018-12-02T00:37:40.928Z,20.70
2018-12-02T00:40:13.951Z,21.77
2018-12-02T00:42:43.544Z,21.90
2018-12-02T00:45:12.900Z,22.20
2018-12-02T00:47:41.122Z,21.70
2018-12-02T00:50:10.405Z,21.23
2018-12-02T00:52:38.913Z,22.17
2018-12-02T00:55:13.123Z,21.67
2018-12-02T00:57:41.342Z,23.37
2018-12-02T01:00:13.690Z,24.33
2018-12-02T01:02:42.399Z,20.87
2018-12-02T01:05:13.815Z,21.27
2018-12-02T01:07:42.024Z,20.77
2018-12-02T01:10:11.686Z,20.80
2018-12-02T01:12:39.978Z,20.93
2018-12-02T01:15:09.774Z,23.20
2018-12-02T01:17:38.087Z,18.67
2018-12-02T01:20:08.949Z,19.70
2018-12-02T01:22:37.214Z,21.50
2018-12-02T01:25:06.255Z,20.43
2018-12-02T01:27:34.578Z,21.40
2018-12-02T01:30:02.897Z,19.33
2018-12-02T01:32:31.102Z,18.87
2018-12-02T01:34:59.462Z,19.47
2018-12-02T01:37:27.690Z,20.70
2018-12-02T01:39:55.920Z,20.13
2018-12-02T01:42:24.175Z,20.17
2018-12-02T01:44:52.442Z,20.33
2018-12-02T01:47:20.667Z,18.37
2018-12-02T01:49:48.903Z,21.10
2018-12-02T01:52:17.150Z,18.40
2018-12-02T01:54:45.386Z,21.73
2018-12-02T01:57:13.629Z,19.97
2018-12-02T01:59:41.869Z,20.03
2018-12-02T02:02:10.149Z,21.07
2018-12-02T02:04:38.430Z,19.93
2018-12-02T02:07:06.644Z,21.13
2018-12-02T02:09:34.863Z,25.17
2018-12-02T02:12:03.099Z,22.20
2018-12-02T02:14:31.330Z,20.80
2018-12-02T02:16:59.565Z,20.80
2018-12-02T02:19:27.831Z,22.43
2018-12-02T02:21:56.093Z,21.60
2018-12-02T02:24:24.334Z,23.03
2018-12-02T02:26:52.575Z,23.97
2018-12-02T02:29:20.824Z,23.93
2018-12-02T02:31:49.048Z,24.27
2018-12-02T02:34:17.270Z,23.93
2018-12-02T02:36:45.522Z,23.93
2018-12-02T02:39:13.749Z,25.00
2018-12-02T02:41:41.981Z,26.73
2018-12-02T02:44:10.196Z,26.80
2018-12-02T02:46:38.558Z,26.97
2018-12-02T02:49:06.799Z,26.37
2018-12-02T02:51:35.016Z,29.23
2018-12-02T02:54:03.292Z,26.57
2018-12-02T02:56:31.551Z,26.60
2018-12-02T02:58:59.834Z,27.27
2018-12-02T03:01:28.206Z,29.57
2018-12-02T03:03:56.433Z,27.97
2018-12-02T03:06:24.706Z,27.17
2018-12-02T03:08:53.009Z,27.27
2018-12-02T03:11:21.258Z,27.87
2018-12-02T03:13:49.504Z,27.03
2018-12-02T03:16:17.736Z,26.37
2018-12-02T03:18:45.961Z,26.23
2018-12-02T03:21:14.186Z,28.30
2018-12-02T03:23:42.526Z,26.27
2018-12-02T03:26:10.761Z,27.90
2018-12-02T03:28:39.044Z,29.97
2018-12-02T03:31:07.277Z,28.70
2018-12-02T03:33:35.516Z,25.17
2018-12-02T03:36:03.758Z,27.50
2018-12-02T03:38:32.006Z,30.80
2018-12-02T03:41:01.877Z,28.37
2018-12-02T03:43:30.110Z,27.40
2018-12-02T03:45:58.374Z,26.20
2018-12-02T03:48:26.598Z,30.70
2018-12-02T03:50:54.820Z,25.07
2018-12-02T03:53:23.043Z,27.43
2018-12-02T03:55:51.350Z,27.67
2018-12-02T03:58:19.620Z,27.20
2018-12-02T04:00:47.867Z,29.63
2018-12-02T04:03:16.258Z,24.67
2018-12-02T04:05:44.510Z,25.00
2018-12-02T04:08:12.759Z,25.63
2018-12-02T04:10:40.988Z,27.13
2018-12-02T04:13:09.240Z,24.67
2018-12-02T04:15:37.490Z,26.73
2018-12-02T04:18:05.754Z,26.10
2018-12-02T04:20:34.050Z,29.40
2018-12-02T04:23:02.280Z,23.47
2018-12-02T04:25:30.530Z,29.00
2018-12-02T04:27:58.867Z,26.23
2018-12-02T04:30:27.120Z,26.03
2018-12-02T04:32:55.414Z,24.60
2018-12-02T04:35:26.247Z,25.90
2018-12-02T04:37:54.555Z,27.83
2018-12-02T04:40:22.801Z,24.57
2018-12-02T04:42:51.034Z,24.97
2018-12-02T04:45:19.746Z,25.10
2018-12-02T04:47:48.281Z,24.80
2018-12-02T04:50:19.485Z,23.83
2018-12-02T04:52:47.709Z,23.60
2018-12-02T04:55:16.043Z,22.73
2018-12-02T04:57:44.273Z,22.53
2018-12-02T05:00:15.306Z,21.43
2018-12-02T05:02:44.278Z,20.60
2018-12-02T05:05:14.517Z,21.63
2018-12-02T05:07:42.987Z,19.83
2018-12-02T05:10:13.073Z,17.17
2018-12-02T05:12:41.610Z,18.70
2018-12-02T05:15:10.899Z,16.27
2018-12-02T05:17:39.222Z,16.07
2018-12-02T05:20:11.679Z,15.47
2018-12-02T05:22:39.919Z,19.23
2018-12-02T05:25:10.114Z,16.23
2018-12-02T05:27:38.489Z,14.73
2018-12-02T05:30:11.813Z,17.23
2018-12-02T05:32:40.341Z,11.77
2018-12-02T05:35:09.479Z,11.30
2018-12-02T05:37:37.714Z,11.73
2018-12-02T05:40:09.810Z,11.90
2018-12-02T05:42:38.072Z,11.20
2018-12-02T05:45:11.147Z,9.40
2018-12-02T05:47:39.358Z,9.20
2018-12-02T05:50:14.594Z,11.17
2018-12-02T05:52:42.874Z,9.80
2018-12-02T05:55:12.609Z,7.80
2018-12-02T05:57:40.981Z,6.27
2018-12-02T06:00:11.417Z,7.53
2018-12-02T06:02:39.658Z,7.33
2018-12-02T06:05:11.649Z,7.30
2018-12-02T06:07:39.915Z,7.40
2018-12-02T06:10:12.991Z,7.67
2018-12-02T06:12:41.213Z,7.43
2018-12-02T06:15:12.412Z,6.73
2018-12-02T06:17:40.622Z,6.30
2018-12-02T06:20:11.343Z,6.13
2018-12-02T06:22:39.657Z,6.30
2018-12-02T06:25:08.804Z,6.73
2018-12-02T06:27:37.499Z,8.27
2018-12-02T06:30:12.530Z,7.83
2018-12-02T06:32:40.832Z,8.10
2018-12-02T06:35:10.722Z,8.20
2018-12-02T06:37:38.965Z,7.50
2018-12-02T06:40:10.965Z,7.50
2018-12-02T06:42:39.187Z,7.27
2018-12-02T06:45:08.230Z,7.80
2018-12-02T06:47:36.465Z,7.90
2018-12-02T06:50:05.250Z,7.67
2018-12-02T06:52:34.122Z,8.53
2018-12-02T06:55:07.988Z,8.03
2018-12-02T06:57:45.214Z,7.97
2018-12-02T07:00:31.546Z,8.80
2018-12-02T07:03:25.005Z,9.27
2018-12-02T07:05:53.277Z,7.40
2018-12-02T07:08:21.527Z,7.60
2018-12-02T07:10:49.767Z,7.90
2018-12-02T07:13:18.016Z,8.47
2018-12-02T07:15:46.240Z,7.27
2018-12-02T07:18:18.854Z,8.13
2018-12-02T07:20:49.706Z,8.53
2018-12-02T07:23:21.858Z,9.80
2018-12-02T07:25:52.980Z,9.13
2018-12-02T07:28:21.230Z,9.50
2018-12-02T07:30:49.487Z,10.97
2018-12-02T07:33:17.738Z,11.67
2018-12-02T07:35:45.970Z,10.97
2018-12-02T07:38:21.467Z,12.47
2018-12-02T07:40:49.999Z,13.63
2018-12-02T07:43:18.242Z,19.40
2018-12-02T07:45:46.565Z,14.03
2018-12-02T07:48:15.430Z,15.07
2018-12-02T07:50:43.727Z,13.40
2018-12-02T07:53:11.981Z,13.83
2018-12-02T07:55:42.897Z,12.17
2018-12-02T07:58:15.584Z,10.53
2018-12-02T08:00:44.251Z,15.30
2018-12-02T08:03:12.652Z,14.73
2018-12-02T08:05:42.474Z,12.73
2018-12-02T08:08:11.010Z,21.53
2018-12-02T08:10:39.249Z,14.10
2018-12-02T08:13:07.493Z,13.93
2018-12-02T08:15:35.750Z,15.27
2018-12-02T08:18:03.975Z,15.23
2018-12-02T08:20:32.216Z,12.90
2018-12-02T08:23:00.450Z,13.73
2018-12-02T08:25:28.718Z,19.73
2018-12-02T08:27:56.965Z,10.00
2018-12-02T08:30:25.957Z,14.80
2018-12-02T08:32:55.024Z,11.07
2018-12-02T08:35:27.445Z,15.53
2018-12-02T08:37:58.242Z,22.93
2018-12-02T08:40:26.486Z,14.70
2018-12-02T08:42:54.766Z,14.57
2018-12-02T08:45:23.051Z,10.73
2018-12-02T08:47:51.271Z,9.50
2018-12-02T08:50:20.863Z,13.90
2018-12-02T08:52:50.519Z,11.10
2018-12-02T08:55:19.510Z,10.37
2018-12-02T08:57:48.533Z,15.80
2018-12-02T09:00:20.826Z,8.07
2018-12-02T09:03:07.304Z,9.47
2018-12-02T09:05:38.051Z,19.33
2018-12-02T09:08:10.082Z,11.50
2018-12-02T09:10:40.377Z,8.83
2018-12-02T09:13:11.228Z,9.93
2018-12-02T09:15:42.346Z,10.80
2018-12-02T09:18:12.638Z,10.53
2018-12-02T09:20:42.353Z,14.27
2018-12-02T09:23:13.748Z,12.37
2018-12-02T09:25:43.977Z,10.20
2018-12-02T09:28:13.853Z,11.47
2018-12-02T09:30:42.118Z,7.53
2018-12-02T09:33:10.363Z,15.53
2018-12-02T09:35:38.628Z,12.77
2018-12-02T09:38:06.929Z,11.33
2018-12-02T09:40:35.210Z,6.70
2018-12-02T09:43:06.750Z,8.10
2018-12-02T09:45:35.119Z,16.50
2018-12-02T09:48:03.398Z,8.67
2018-12-02T09:50:31.644Z,8.40
2018-12-02T09:52:59.962Z,9.70
2018-12-02T09:55:31.705Z,6.53
2018-12-02T09:58:00.067Z,11.50
2018-12-02T10:00:33.902Z,5.40
2018-12-02T10:02:56.668Z,10.47
2018-12-02T10:05:25.011Z,8.37
2018-12-02T10:07:54.198Z,9.83
2018-12-02T10:10:23.152Z,13.40
2018-12-02T10:12:54.144Z,9.93
2018-12-02T10:15:22.391Z,12.13
2018-12-02T10:17:50.662Z,7.10
2018-12-02T10:20:18.926Z,12.23
2018-12-02T10:22:47.436Z,10.83
2018-12-02T10:25:16.653Z,9.10
2018-12-02T10:27:44.915Z,6.37
2018-12-02T10:30:16.485Z,15.47
2018-12-02T10:32:44.717Z,7.67
2018-12-02T10:35:12.963Z,8.83
2018-12-02T10:37:41.190Z,10.07
2018-12-02T10:40:14.507Z,14.70
2018-12-02T10:42:42.760Z,15.60
2018-12-02T10:45:13.112Z,11.47
2018-12-02T10:47:41.582Z,7.77
2018-12-02T10:50:18.322Z,17.47
2018-12-02T10:55:27.170Z,16.03
2018-12-02T10:57:55.405Z,9.30
2018-12-02T11:00:29.079Z,20.80
2018-12-02T11:02:57.318Z,12.60
2018-12-02T11:05:25.551Z,9.37
2018-12-02T11:07:53.799Z,11.20
2018-12-02T11:10:22.094Z,19.87
2018-12-02T13:12:56.435Z,17.90
2018-12-02T13:15:25.636Z,21.90
2018-12-02T13:17:55.857Z,22.83
2018-12-02T13:20:26.280Z,28.13
2018-12-02T13:22:54.567Z,18.83
2018-12-02T13:25:22.977Z,24.23
2018-12-02T13:27:51.220Z,24.23
2018-12-02T13:30:20.193Z,30.30
2018-12-02T13:32:49.622Z,20.23
2018-12-02T13:35:17.897Z,21.90
2018-12-02T13:37:46.192Z,19.60
2018-12-02T13:40:17.536Z,17.53
2018-12-02T13:42:52.135Z,19.07
2018-12-02T13:45:22.874Z,14.70
2018-12-02T13:47:51.116Z,20.03
2018-12-02T13:50:20.028Z,25.33
2018-12-02T13:52:49.437Z,14.07
2018-12-02T13:55:18.810Z,18.17
2018-12-02T13:57:47.513Z,9.50
2018-12-02T14:00:17.742Z,12.43
2018-12-02T14:02:49.092Z,14.00
2018-12-02T14:05:17.359Z,11.07
2018-12-02T14:07:45.819Z,17.77
2018-12-02T14:10:14.771Z,7.17
2018-12-02T14:13:46.040Z,15.13
2018-12-02T14:16:32.921Z,12.80
2018-12-02T14:19:03.963Z,13.50
2018-12-02T14:21:32.227Z,7.27
2018-12-02T14:24:00.500Z,7.70
2018-12-02T14:26:28.732Z,13.37
2018-12-02T14:29:13.850Z,13.80
2018-12-02T14:31:44.841Z,20.07
2018-12-02T14:34:13.084Z,11.83
2018-12-02T14:36:41.386Z,10.40
2018-12-02T14:39:11.063Z,12.03
2018-12-02T14:41:39.404Z,11.17
2018-12-02T14:44:08.219Z,17.33
2018-12-02T14:46:36.679Z,9.77
2018-12-02T14:49:05.510Z,8.70
2018-12-02T14:51:33.824Z,12.40
2018-12-02T14:54:02.140Z,7.70
2018-12-02T14:56:30.384Z,7.17
2018-12-02T14:58:58.612Z,7.57
2018-12-02T15:01:26.846Z,5.03
2018-12-02T15:03:55.111Z,12.43
2018-12-02T15:06:23.375Z,6.13
2018-12-02T15:08:51.614Z,10.97
2018-12-02T15:11:19.850Z,11.63
2018-12-02T15:13:48.147Z,10.73
2018-12-02T15:16:16.355Z,4.60
2018-12-02T15:18:44.591Z,8.13
2018-12-02T15:21:12.862Z,5.10
2018-12-02T15:23:41.166Z,8.60
2018-12-02T15:26:09.507Z,7.47
2018-12-02T15:28:37.757Z,8.10
2018-12-02T15:31:06.005Z,5.53
2018-12-02T15:33:34.233Z,8.00
2018-12-02T15:36:02.506Z,7.33
2018-12-02T15:38:30.762Z,7.30
2018-12-02T15:40:59.055Z,3.17
2018-12-02T15:43:27.303Z,12.53
2018-12-02T15:45:55.535Z,6.60
2018-12-02T15:48:23.788Z,6.73
2018-12-02T15:50:52.040Z,5.93
2018-12-02T15:53:20.294Z,4.00
2018-12-02T15:55:48.583Z,9.83
2018-12-02T15:58:16.810Z,6.77
2018-12-02T16:00:46.081Z,11.13
2018-12-02T16:03:14.326Z,12.13
2018-12-02T16:05:42.555Z,7.33
2018-12-02T16:08:10.930Z,11.20
2018-12-02T16:10:39.170Z,16.13
2018-12-02T16:13:08.995Z,8.63
2018-12-02T16:15:37.271Z,8.87
2018-12-02T16:18:07.120Z,11.87
2018-12-02T16:20:41.220Z,6.33
2018-12-02T16:23:09.463Z,9.77
2018-12-02T16:25:37.774Z,7.63
2018-12-02T16:28:06.073Z,11.87
2018-12-02T16:30:34.458Z,12.60
2018-12-02T16:33:02.697Z,9.00
2018-12-02T16:35:30.978Z,7.17
2018-12-02T16:37:59.223Z,10.33
2018-12-02T16:40:27.559Z,9.03
2018-12-02T16:42:56.915Z,6.93
2018-12-02T16:45:25.206Z,7.40
2018-12-02T16:47:54.694Z,11.90
2018-12-02T16:50:26.026Z,10.73
2018-12-02T16:52:55.736Z,11.33
2018-12-02T16:55:26.676Z,14.93
2018-12-02T16:58:01.464Z,15.90
2018-12-02T17:00:36.080Z,10.80
2018-12-02T17:03:04.298Z,14.97
2018-12-02T17:05:32.575Z,9.23
2018-12-02T17:08:00.867Z,9.10
2018-12-02T17:10:29.094Z,10.63
2018-12-02T17:12:57.339Z,11.90
2018-12-02T17:15:25.621Z,15.50
2018-12-02T17:17:53.909Z,14.10
2018-12-02T17:20:22.163Z,19.10
2018-12-02T17:22:50.450Z,8.67
2018-12-02T17:25:18.682Z,22.10
2018-12-02T17:27:46.902Z,21.77
2018-12-02T17:30:21.555Z,20.60
2018-12-02T17:32:49.788Z,19.60
2018-12-02T17:35:18.023Z,20.23
2018-12-02T17:37:46.242Z,24.93
2018-12-02T17:40:17.395Z,26.80
2018-12-02T17:42:46.068Z,22.73
2018-12-02T17:45:14.338Z,14.03
2018-12-02T17:47:42.561Z,11.47
2018-12-02T17:50:14.107Z,19.27
2018-12-02T17:52:43.455Z,25.77
2018-12-02T17:55:11.678Z,19.97
2018-12-02T17:57:39.939Z,19.53
2018-12-02T18:00:10.743Z,29.30
2018-12-02T18:02:38.999Z,17.90
2018-12-02T18:05:10.411Z,14.77
2018-12-02T18:07:38.665Z,15.10
2018-12-02T18:10:09.796Z,16.47
2018-12-02T18:12:38.254Z,24.57
2018-12-02T18:15:10.322Z,15.97
2018-12-02T18:17:38.710Z,15.40
2018-12-02T18:20:09.254Z,18.83
2018-12-02T18:22:37.501Z,18.00
2018-12-02T18:25:09.685Z,20.27
2018-12-02T18:27:37.938Z,14.67
2018-12-02T18:30:19.795Z,15.20
2018-12-02T18:32:50.380Z,17.93
2018-12-02T18:35:22.270Z,14.27
2018-12-02T18:37:50.883Z,20.97
2018-12-02T18:40:19.123Z,14.03
2018-12-02T18:42:47.398Z,19.73
2018-12-02T18:45:15.635Z,6.40
2018-12-02T18:47:43.885Z,11.70
2018-12-02T18:50:12.522Z,19.30
2018-12-02T18:52:40.738Z,9.43
2018-12-02T18:55:11.244Z,11.03
2018-12-02T18:57:40.180Z,15.00
2018-12-02T19:00:18.335Z,14.10
2018-12-02T19:02:46.966Z,17.27
2018-12-02T19:05:15.206Z,15.40
2018-12-02T19:07:43.478Z,16.80
2018-12-02T19:10:13.534Z,19.33
2018-12-02T19:12:41.756Z,11.83
2018-12-02T19:15:12.415Z,13.63
2018-12-02T19:17:40.644Z,14.13
2018-12-02T19:20:12.874Z,12.93
2018-12-02T19:22:41.098Z,20.70
2018-12-02T19:25:11.292Z,20.03
2018-12-02T19:27:39.529Z,24.07
2018-12-02T19:30:11.550Z,21.10
2018-12-02T19:32:39.790Z,18.73
2018-12-02T19:35:12.930Z,17.17
2018-12-02T19:37:41.627Z,18.33
2018-12-02T19:40:13.250Z,17.90
2018-12-02T19:42:41.519Z,15.60
2018-12-02T19:45:12.445Z,14.17
2018-12-02T19:47:40.690Z,19.80
2018-12-02T19:50:12.032Z,15.43
2018-12-02T19:52:40.277Z,15.30
2018-12-02T19:55:09.793Z,16.03
2018-12-02T19:57:38.000Z,17.00
2018-12-02T20:00:26.847Z,16.37
2018-12-02T20:02:55.373Z,14.20
2018-12-02T20:05:23.629Z,20.00
2018-12-02T20:07:53.466Z,15.23
2018-12-02T20:10:23.239Z,16.30
2018-12-02T20:12:51.666Z,32.50
2018-12-02T20:15:19.929Z,13.43
2018-12-02T20:17:48.174Z,23.97
2018-12-02T20:20:23.758Z,15.03
2018-12-02T20:22:52.659Z,20.10
2018-12-02T20:25:22.254Z,14.67
2018-12-02T20:27:52.356Z,25.73
2018-12-02T20:30:21.534Z,13.63
2018-12-02T20:32:49.957Z,18.90
2018-12-02T20:35:18.210Z,15.07
2018-12-02T20:37:46.428Z,24.97
2018-12-02T20:40:17.871Z,11.90
2018-12-02T20:42:46.742Z,14.67
2018-12-02T20:45:15.726Z,13.53
2018-12-02T20:47:43.983Z,16.80
2018-12-02T20:50:14.103Z,13.57
2018-12-02T20:52:42.334Z,4.77
2018-12-02T20:55:12.723Z,9.77
2018-12-02T20:57:40.952Z,6.87
2018-12-02T21:00:14.535Z,7.57
2018-12-02T21:02:43.703Z,10.17
2018-12-02T21:05:16.415Z,7.60
2018-12-02T21:07:44.629Z,11.83
2018-12-02T21:10:12.892Z,7.53
2018-12-02T21:12:41.135Z,12.40
2018-12-02T21:15:11.863Z,6.80
2018-12-02T21:17:40.091Z,9.10
2018-12-02T21:20:09.936Z,11.77
2018-12-02T21:22:38.157Z,11.67
2018-12-02T21:25:12.844Z,12.33
2018-12-02T21:27:41.060Z,11.53
2018-12-02T21:30:18.212Z,14.50
2018-12-02T21:32:46.429Z,13.70
2018-12-02T21:35:14.666Z,13.90
2018-12-02T21:37:43.140Z,17.80
2018-12-02T21:40:14.358Z,15.47
2018-12-02T21:42:42.631Z,10.93
2018-12-02T21:45:12.790Z,9.67
2018-12-02T21:47:56.548Z,13.00
2018-12-02T21:50:30.343Z,17.20
2018-12-02T21:52:59.699Z,11.43
2018-12-02T21:55:28.034Z,17.47
2018-12-02T21:57:56.265Z,14.87
2018-12-02T22:00:30.043Z,20.00
2018-12-02T22:02:58.286Z,13.73
2018-12-02T22:05:26.709Z,8.20
2018-12-02T22:07:55.095Z,12.30
2018-12-02T22:10:26.563Z,10.80
2018-12-02T22:12:54.809Z,12.47
2018-12-02T22:15:23.030Z,16.73
2018-12-02T22:17:51.288Z,15.00
2018-12-02T22:20:19.564Z,12.23
2018-12-02T22:22:48.050Z,21.63
2018-12-02T22:25:20.481Z,16.67
2018-12-02T22:27:50.737Z,13.53
2018-12-02T22:30:20.045Z,13.20
2018-12-02T22:32:48.291Z,16.77
2018-12-02T22:35:16.917Z,19.90
2018-12-02T22:37:45.871Z,10.97
2018-12-02T22:40:22.078Z,18.53
2018-12-02T22:42:51.679Z,13.17
2018-12-02T22:45:22.105Z,14.07
2018-12-02T22:47:50.391Z,10.37
2018-12-02T22:50:19.565Z,14.47
2018-12-02T22:52:50.734Z,14.70
2018-12-02T22:55:19.011Z,15.07
2018-12-02T22:57:47.226Z,14.07
2018-12-02T23:00:25.807Z,8.00
2018-12-02T23:02:59.805Z,8.60
2018-12-02T23:05:28.058Z,4.63
2018-12-02T23:07:56.281Z,9.60
2018-12-02T23:10:24.513Z,7.73
2018-12-02T23:12:52.734Z,5.77
2018-12-02T23:15:21.098Z,8.30
2018-12-02T23:17:49.371Z,7.80
2018-12-02T23:20:17.594Z,8.47
2018-12-02T23:22:45.900Z,9.83
2018-12-02T23:25:14.810Z,8.23
2018-12-02T23:27:43.146Z,10.10
2018-12-02T23:30:15.844Z,13.10
2018-12-02T23:32:44.071Z,14.43
2018-12-02T23:35:12.295Z,9.40
2018-12-02T23:37:40.546Z,12.40
2018-12-02T23:40:12.722Z,12.90
2018-12-02T23:42:40.957Z,14.87
2018-12-02T23:45:10.235Z,9.10
2018-12-02T23:47:38.467Z,15.57
2018-12-02T23:50:11.267Z,12.83
2018-12-02T23:52:39.480Z,16.23
2018-12-02T23:55:10.072Z,7.83
2018-12-02T23:57:38.310Z,12.27
